sensor_id;sensor_type;location;lat;lon;timestamp;pressure;altitude;pressure_sealevel;temperature;humidity
80781;BME280;70341;56.408;10.874;2023-09-30T00:00:09;101629.81;;;13.18;76.37
80781;BME280;70341;56.408;10.874;2023-09-30T00:02:59;101626.65;;;13.16;76.35
80781;BME280;70341;56.408;10.874;2023-09-30T00:05:31;101624.45;;;13.13;76.57
80781;BME280;70341;56.408;10.874;2023-09-30T00:08:00;101632.12;;;13.13;76.61
80781;BME280;70341;56.408;10.874;2023-09-30T00:10:30;101634.92;;;13.09;76.53
80781;BME280;70341;56.408;10.874;2023-09-30T00:12:59;101633.76;;;13.02;76.54
80781;BME280;70341;56.408;10.874;2023-09-30T00:15:28;101641.04;;;13.04;76.43
80781;BME280;70341;56.408;10.874;2023-09-30T00:18:01;101638.21;;;13.03;76.62
80781;BME280;70341;56.408;10.874;2023-09-30T00:20:31;101644.15;;;13.00;76.72
80781;BME280;70341;56.408;10.874;2023-09-30T00:23:01;101644.61;;;12.98;76.82
80781;BME280;70341;56.408;10.874;2023-09-30T00:25:33;101650.44;;;12.94;76.88
80781;BME280;70341;56.408;10.874;2023-09-30T00:28:04;101645.69;;;12.88;76.80
80781;BME280;70341;56.408;10.874;2023-09-30T00:30:34;101652.92;;;12.90;77.08
80781;BME280;70341;56.408;10.874;2023-09-30T00:33:05;101651.98;;;12.91;77.08
80781;BME280;70341;56.408;10.874;2023-09-30T00:35:34;101650.05;;;12.90;77.00
80781;BME280;70341;56.408;10.874;2023-09-30T00:38:05;101651.73;;;12.93;76.92
80781;BME280;70341;56.408;10.874;2023-09-30T00:40:34;101647.48;;;12.93;77.02
80781;BME280;70341;56.408;10.874;2023-09-30T00:43:04;101645.33;;;12.93;76.96
80781;BME280;70341;56.408;10.874;2023-09-30T00:45:33;101643.84;;;12.94;76.87
80781;BME280;70341;56.408;10.874;2023-09-30T00:48:05;101644.74;;;12.94;77.19
80781;BME280;70341;56.408;10.874;2023-09-30T00:50:34;101646.75;;;12.93;77.02
80781;BME280;70341;56.408;10.874;2023-09-30T00:53:04;101647.20;;;12.90;77.02
80781;BME280;70341;56.408;10.874;2023-09-30T00:55:34;101649.09;;;12.87;77.07
80781;BME280;70341;56.408;10.874;2023-09-30T00:58:07;101642.21;;;12.80;77.28
80781;BME280;70341;56.408;10.874;2023-09-30T01:00:37;101646.56;;;12.83;77.35
80781;BME280;70341;56.408;10.874;2023-09-30T01:03:08;101646.36;;;12.83;77.36
80781;BME280;70341;56.408;10.874;2023-09-30T01:05:38;101638.12;;;12.80;77.25
80781;BME280;70341;56.408;10.874;2023-09-30T01:08:07;101644.61;;;12.83;77.45
80781;BME280;70341;56.408;10.874;2023-09-30T01:10:36;101652.02;;;12.81;77.42
80781;BME280;70341;56.408;10.874;2023-09-30T01:13:06;101645.17;;;12.77;77.46
80781;BME280;70341;56.408;10.874;2023-09-30T01:15:37;101647.98;;;12.79;77.67
80781;BME280;70341;56.408;10.874;2023-09-30T01:18:09;101649.59;;;12.79;77.81
80781;BME280;70341;56.408;10.874;2023-09-30T01:20:40;101648.39;;;12.77;77.76
80781;BME280;70341;56.408;10.874;2023-09-30T01:23:11;101649.50;;;12.75;77.88
80781;BME280;70341;56.408;10.874;2023-09-30T01:25:42;101650.21;;;12.76;78.06
80781;BME280;70341;56.408;10.874;2023-09-30T01:28:13;101645.00;;;12.72;77.90
80781;BME280;70341;56.408;10.874;2023-09-30T01:30:43;101653.92;;;12.77;77.82
80781;BME280;70341;56.408;10.874;2023-09-30T01:33:13;101654.48;;;12.76;77.65
80781;BME280;70341;56.408;10.874;2023-09-30T01:35:43;101652.94;;;12.74;77.97
80781;BME280;70341;56.408;10.874;2023-09-30T01:38:13;101651.62;;;12.71;78.06
80781;BME280;70341;56.408;10.874;2023-09-30T01:40:42;101647.64;;;12.67;78.25
80781;BME280;70341;56.408;10.874;2023-09-30T01:43:17;101654.33;;;12.69;78.26
80781;BME280;70341;56.408;10.874;2023-09-30T01:45:48;101651.29;;;12.70;78.15
80781;BME280;70341;56.408;10.874;2023-09-30T01:48:17;101650.10;;;12.68;78.43
80781;BME280;70341;56.408;10.874;2023-09-30T01:50:46;101653.56;;;12.66;78.41
80781;BME280;70341;56.408;10.874;2023-09-30T01:53:15;101654.33;;;12.65;78.68
80781;BME280;70341;56.408;10.874;2023-09-30T01:55:45;101655.95;;;12.65;78.60
80781;BME280;70341;56.408;10.874;2023-09-30T01:58:16;101661.44;;;12.66;78.44
80781;BME280;70341;56.408;10.874;2023-09-30T02:00:46;101666.23;;;12.66;78.45
80781;BME280;70341;56.408;10.874;2023-09-30T02:03:17;101660.70;;;12.61;78.50
80781;BME280;70341;56.408;10.874;2023-09-30T02:05:47;101664.20;;;12.62;78.74
80781;BME280;70341;56.408;10.874;2023-09-30T02:08:16;101663.52;;;12.61;78.63
80781;BME280;70341;56.408;10.874;2023-09-30T02:10:46;101663.57;;;12.60;78.71
80781;BME280;70341;56.408;10.874;2023-09-30T02:13:18;101657.64;;;12.56;78.85
80781;BME280;70341;56.408;10.874;2023-09-30T02:15:49;101670.19;;;12.59;78.97
80781;BME280;70341;56.408;10.874;2023-09-30T02:18:18;101676.73;;;12.56;78.84
80781;BME280;70341;56.408;10.874;2023-09-30T02:20:48;101668.29;;;12.53;79.12
80781;BME280;70341;56.408;10.874;2023-09-30T02:23:18;101672.36;;;12.53;79.14
80781;BME280;70341;56.408;10.874;2023-09-30T02:25:50;101672.00;;;12.54;79.26
80781;BME280;70341;56.408;10.874;2023-09-30T02:28:20;101673.57;;;12.55;79.65
80781;BME280;70341;56.408;10.874;2023-09-30T02:30:51;101670.49;;;12.56;79.59
80781;BME280;70341;56.408;10.874;2023-09-30T02:33:20;101670.88;;;12.55;79.41
80781;BME280;70341;56.408;10.874;2023-09-30T02:35:51;101675.97;;;12.57;79.56
80781;BME280;70341;56.408;10.874;2023-09-30T02:38:20;101674.99;;;12.60;79.57
80781;BME280;70341;56.408;10.874;2023-09-30T02:40:51;101672.30;;;12.60;79.39
80781;BME280;70341;56.408;10.874;2023-09-30T02:43:20;101671.89;;;12.62;79.22
80781;BME280;70341;56.408;10.874;2023-09-30T02:45:51;101672.61;;;12.61;79.24
80781;BME280;70341;56.408;10.874;2023-09-30T02:48:21;101676.71;;;12.61;79.33
80781;BME280;70341;56.408;10.874;2023-09-30T02:50:53;101680.41;;;12.63;79.36
80781;BME280;70341;56.408;10.874;2023-09-30T02:53:23;101678.45;;;12.63;79.24
80781;BME280;70341;56.408;10.874;2023-09-30T02:55:53;101681.25;;;12.65;79.18
80781;BME280;70341;56.408;10.874;2023-09-30T02:58:24;101685.74;;;12.64;79.48
80781;BME280;70341;56.408;10.874;2023-09-30T03:00:55;101688.83;;;12.62;79.42
80781;BME280;70341;56.408;10.874;2023-09-30T03:03:25;101689.07;;;12.60;79.39
80781;BME280;70341;56.408;10.874;2023-09-30T03:05:56;101688.15;;;12.61;79.40
80781;BME280;70341;56.408;10.874;2023-09-30T03:08:24;101688.70;;;12.60;79.52
80781;BME280;70341;56.408;10.874;2023-09-30T03:10:55;101689.79;;;12.60;79.52
80781;BME280;70341;56.408;10.874;2023-09-30T03:13:24;101688.55;;;12.60;79.42
80781;BME280;70341;56.408;10.874;2023-09-30T03:15:57;101681.86;;;12.57;79.46
80781;BME280;70341;56.408;10.874;2023-09-30T03:18:25;101686.42;;;12.59;79.31
80781;BME280;70341;56.408;10.874;2023-09-30T03:21:02;101690.10;;;12.61;79.24
80781;BME280;70341;56.408;10.874;2023-09-30T03:23:32;101693.61;;;12.63;79.11
80781;BME280;70341;56.408;10.874;2023-09-30T03:26:03;101690.98;;;12.61;79.17
80781;BME280;70341;56.408;10.874;2023-09-30T03:28:33;101690.81;;;12.61;79.21
80781;BME280;70341;56.408;10.874;2023-09-30T03:31:04;101691.96;;;12.59;79.22
80781;BME280;70341;56.408;10.874;2023-09-30T03:33:35;101694.51;;;12.57;79.37
80781;BME280;70341;56.408;10.874;2023-09-30T03:36:03;101700.11;;;12.55;79.55
80781;BME280;70341;56.408;10.874;2023-09-30T03:38:35;101699.95;;;12.55;79.46
80781;BME280;70341;56.408;10.874;2023-09-30T03:41:04;101696.84;;;12.52;79.13
80781;BME280;70341;56.408;10.874;2023-09-30T03:43:35;101695.80;;;12.51;79.44
80781;BME280;70341;56.408;10.874;2023-09-30T03:46:09;101688.86;;;12.51;79.36
80781;BME280;70341;56.408;10.874;2023-09-30T03:48:40;101686.73;;;12.51;79.36
80781;BME280;70341;56.408;10.874;2023-09-30T03:51:14;101687.46;;;12.50;79.41
80781;BME280;70341;56.408;10.874;2023-09-30T03:53:45;101694.83;;;12.48;79.68
80781;BME280;70341;56.408;10.874;2023-09-30T03:56:13;101689.45;;;12.43;79.81
80781;BME280;70341;56.408;10.874;2023-09-30T03:58:45;101693.33;;;12.45;79.67
80781;BME280;70341;56.408;10.874;2023-09-30T04:01:16;101692.17;;;12.47;79.70
80781;BME280;70341;56.408;10.874;2023-09-30T04:03:46;101686.34;;;12.46;79.62
80781;BME280;70341;56.408;10.874;2023-09-30T04:06:15;101692.52;;;12.47;79.58
80781;BME280;70341;56.408;10.874;2023-09-30T04:08:47;101687.69;;;12.48;79.55
80781;BME280;70341;56.408;10.874;2023-09-30T04:11:16;101688.77;;;12.47;79.76
80781;BME280;70341;56.408;10.874;2023-09-30T04:13:47;101682.11;;;12.44;79.45
80781;BME280;70341;56.408;10.874;2023-09-30T04:16:18;101695.16;;;12.48;79.80
80781;BME280;70341;56.408;10.874;2023-09-30T04:18:49;101689.42;;;12.44;79.70
80781;BME280;70341;56.408;10.874;2023-09-30T04:21:19;101694.98;;;12.43;79.64
80781;BME280;70341;56.408;10.874;2023-09-30T04:23:50;101701.91;;;12.44;79.61
80781;BME280;70341;56.408;10.874;2023-09-30T04:26:22;101706.13;;;12.46;79.67
80781;BME280;70341;56.408;10.874;2023-09-30T04:28:53;101708.44;;;12.46;79.63
80781;BME280;70341;56.408;10.874;2023-09-30T04:31:23;101700.63;;;12.45;79.75
80781;BME280;70341;56.408;10.874;2023-09-30T04:33:53;101700.66;;;12.44;79.87
80781;BME280;70341;56.408;10.874;2023-09-30T04:36:21;101700.38;;;12.42;79.62
80781;BME280;70341;56.408;10.874;2023-09-30T04:38:53;101704.83;;;12.42;79.79
80781;BME280;70341;56.408;10.874;2023-09-30T04:41:22;101703.33;;;12.44;79.55
80781;BME280;70341;56.408;10.874;2023-09-30T04:43:52;101702.72;;;12.46;79.79
80781;BME280;70341;56.408;10.874;2023-09-30T04:46:22;101703.26;;;12.46;79.65
80781;BME280;70341;56.408;10.874;2023-09-30T04:48:51;101703.27;;;12.46;79.33
80781;BME280;70341;56.408;10.874;2023-09-30T04:51:21;101711.29;;;12.46;79.54
80781;BME280;70341;56.408;10.874;2023-09-30T04:53:50;101707.02;;;12.45;79.56
80781;BME280;70341;56.408;10.874;2023-09-30T04:56:21;101706.46;;;12.46;79.81
80781;BME280;70341;56.408;10.874;2023-09-30T04:58:51;101704.48;;;12.47;79.72
80781;BME280;70341;56.408;10.874;2023-09-30T05:01:21;101707.25;;;12.50;79.67
80781;BME280;70341;56.408;10.874;2023-09-30T05:03:52;101710.63;;;12.51;79.43
80781;BME280;70341;56.408;10.874;2023-09-30T05:06:21;101713.30;;;12.50;79.68
80781;BME280;70341;56.408;10.874;2023-09-30T05:08:51;101715.78;;;12.51;79.58
80781;BME280;70341;56.408;10.874;2023-09-30T05:11:20;101724.70;;;12.51;79.62
80781;BME280;70341;56.408;10.874;2023-09-30T05:13:51;101727.73;;;12.51;79.75
80781;BME280;70341;56.408;10.874;2023-09-30T05:16:20;101727.70;;;12.52;79.87
80781;BME280;70341;56.408;10.874;2023-09-30T05:18:50;101727.71;;;12.51;79.72
80781;BME280;70341;56.408;10.874;2023-09-30T05:21:21;101730.14;;;12.53;79.45
80781;BME280;70341;56.408;10.874;2023-09-30T05:23:51;101732.73;;;12.56;79.61
80781;BME280;70341;56.408;10.874;2023-09-30T05:26:20;101735.42;;;12.60;79.38
80781;BME280;70341;56.408;10.874;2023-09-30T05:28:51;101742.99;;;12.63;79.18
80781;BME280;70341;56.408;10.874;2023-09-30T05:31:21;101744.89;;;12.66;79.10
80781;BME280;70341;56.408;10.874;2023-09-30T05:33:52;101750.19;;;12.67;79.27
80781;BME280;70341;56.408;10.874;2023-09-30T05:36:22;101745.39;;;12.67;79.18
80781;BME280;70341;56.408;10.874;2023-09-30T05:38:51;101747.52;;;12.72;79.17
80781;BME280;70341;56.408;10.874;2023-09-30T05:41:22;101747.57;;;12.77;78.95
80781;BME280;70341;56.408;10.874;2023-09-30T05:43:51;101748.80;;;12.77;78.91
80781;BME280;70341;56.408;10.874;2023-09-30T05:46:21;101752.27;;;12.80;78.89
80781;BME280;70341;56.408;10.874;2023-09-30T05:48:51;101758.73;;;12.84;78.80
80781;BME280;70341;56.408;10.874;2023-09-30T05:51:21;101754.60;;;12.85;78.65
80781;BME280;70341;56.408;10.874;2023-09-30T05:53:50;101765.39;;;12.93;78.66
80781;BME280;70341;56.408;10.874;2023-09-30T05:56:20;101773.06;;;12.98;78.37
80781;BME280;70341;56.408;10.874;2023-09-30T05:58:49;101766.10;;;12.98;78.31
80781;BME280;70341;56.408;10.874;2023-09-30T06:01:18;101766.75;;;13.06;78.31
80781;BME280;70341;56.408;10.874;2023-09-30T06:03:47;101758.59;;;13.09;78.27
80781;BME280;70341;56.408;10.874;2023-09-30T06:06:17;101771.81;;;13.20;78.16
80781;BME280;70341;56.408;10.874;2023-09-30T06:08:47;101775.86;;;13.27;78.07
80781;BME280;70341;56.408;10.874;2023-09-30T06:11:20;101775.48;;;13.33;78.04
80781;BME280;70341;56.408;10.874;2023-09-30T06:13:52;101779.13;;;13.41;77.93
80781;BME280;70341;56.408;10.874;2023-09-30T06:16:20;101778.16;;;13.48;77.60
80781;BME280;70341;56.408;10.874;2023-09-30T06:18:53;101782.98;;;13.58;77.31
80781;BME280;70341;56.408;10.874;2023-09-30T06:21:24;101781.85;;;13.65;77.12
80781;BME280;70341;56.408;10.874;2023-09-30T06:23:55;101790.40;;;13.80;76.69
80781;BME280;70341;56.408;10.874;2023-09-30T06:26:25;101791.23;;;13.91;76.48
80781;BME280;70341;56.408;10.874;2023-09-30T06:28:56;101788.51;;;14.02;76.38
80781;BME280;70341;56.408;10.874;2023-09-30T06:31:27;101789.23;;;14.11;75.97
80781;BME280;70341;56.408;10.874;2023-09-30T06:33:58;101794.58;;;14.26;75.62
80781;BME280;70341;56.408;10.874;2023-09-30T06:36:27;101793.81;;;14.36;75.48
80781;BME280;70341;56.408;10.874;2023-09-30T06:38:59;101797.65;;;14.49;75.29
80781;BME280;70341;56.408;10.874;2023-09-30T06:41:27;101798.20;;;14.62;74.94
80781;BME280;70341;56.408;10.874;2023-09-30T06:43:58;101798.67;;;14.72;74.57
80781;BME280;70341;56.408;10.874;2023-09-30T06:46:27;101800.83;;;14.86;74.00
80781;BME280;70341;56.408;10.874;2023-09-30T06:48:58;101800.08;;;14.94;73.68
80781;BME280;70341;56.408;10.874;2023-09-30T06:51:27;101805.44;;;15.04;73.45
80781;BME280;70341;56.408;10.874;2023-09-30T06:53:58;101809.33;;;15.14;73.06
80781;BME280;70341;56.408;10.874;2023-09-30T06:56:28;101812.05;;;15.25;73.21
80781;BME280;70341;56.408;10.874;2023-09-30T06:58:58;101817.74;;;15.39;72.69
80781;BME280;70341;56.408;10.874;2023-09-30T07:01:28;101828.36;;;15.54;72.07
80781;BME280;70341;56.408;10.874;2023-09-30T07:03:58;101830.48;;;15.68;71.76
80781;BME280;70341;56.408;10.874;2023-09-30T07:06:27;101829.35;;;15.77;71.54
80781;BME280;70341;56.408;10.874;2023-09-30T07:08:59;101837.20;;;15.90;70.90
80781;BME280;70341;56.408;10.874;2023-09-30T07:11:30;101835.65;;;15.97;70.85
80781;BME280;70341;56.408;10.874;2023-09-30T07:14:01;101824.20;;;15.97;70.57
80781;BME280;70341;56.408;10.874;2023-09-30T07:16:31;101839.89;;;16.18;70.59
80781;BME280;70341;56.408;10.874;2023-09-30T07:19:03;101835.90;;;16.34;70.21
80781;BME280;70341;56.408;10.874;2023-09-30T07:21:32;101837.13;;;16.54;70.28
80781;BME280;70341;56.408;10.874;2023-09-30T07:24:05;101845.02;;;16.77;68.89
80781;BME280;70341;56.408;10.874;2023-09-30T07:26:34;101842.55;;;16.91;68.24
80781;BME280;70341;56.408;10.874;2023-09-30T07:29:05;101844.29;;;17.00;67.78
80781;BME280;70341;56.408;10.874;2023-09-30T07:31:38;101845.48;;;17.08;67.09
80781;BME280;70341;56.408;10.874;2023-09-30T07:34:09;101847.77;;;17.13;66.43
80781;BME280;70341;56.408;10.874;2023-09-30T07:36:38;101845.73;;;17.17;66.19
80781;BME280;70341;56.408;10.874;2023-09-30T07:39:08;101847.89;;;17.21;65.92
80781;BME280;70341;56.408;10.874;2023-09-30T07:41:37;101851.50;;;17.28;66.01
80781;BME280;70341;56.408;10.874;2023-09-30T07:44:08;101855.55;;;17.40;65.90
80781;BME280;70341;56.408;10.874;2023-09-30T07:46:39;101857.95;;;17.53;65.27
80781;BME280;70341;56.408;10.874;2023-09-30T07:49:12;101862.02;;;17.65;65.03
80781;BME280;70341;56.408;10.874;2023-09-30T07:51:41;101863.04;;;17.83;64.71
80781;BME280;70341;56.408;10.874;2023-09-30T07:54:12;101868.48;;;18.07;63.43
80781;BME280;70341;56.408;10.874;2023-09-30T07:57:00;101872.82;;;18.30;62.84
80781;BME280;70341;56.408;10.874;2023-09-30T07:59:30;101876.16;;;18.44;62.36
80781;BME280;70341;56.408;10.874;2023-09-30T08:02:02;101882.30;;;18.60;61.88
80781;BME280;70341;56.408;10.874;2023-09-30T08:04:31;101884.64;;;18.67;61.80
80781;BME280;70341;56.408;10.874;2023-09-30T08:07:02;101881.64;;;18.85;61.52
80781;BME280;70341;56.408;10.874;2023-09-30T08:09:32;101893.64;;;19.18;60.86
80781;BME280;70341;56.408;10.874;2023-09-30T08:12:05;101899.34;;;19.35;59.71
80781;BME280;70341;56.408;10.874;2023-09-30T08:14:33;101906.10;;;19.45;59.50
80781;BME280;70341;56.408;10.874;2023-09-30T08:17:03;101906.27;;;19.58;59.91
80781;BME280;70341;56.408;10.874;2023-09-30T08:19:31;101911.64;;;19.74;59.14
80781;BME280;70341;56.408;10.874;2023-09-30T08:22:02;101918.91;;;19.88;57.88
80781;BME280;70341;56.408;10.874;2023-09-30T08:24:32;101918.31;;;19.98;56.98
80781;BME280;70341;56.408;10.874;2023-09-30T08:27:01;101921.64;;;20.06;57.12
80781;BME280;70341;56.408;10.874;2023-09-30T08:29:36;101924.41;;;20.28;55.82
80781;BME280;70341;56.408;10.874;2023-09-30T08:32:05;101919.27;;;20.38;55.02
80781;BME280;70341;56.408;10.874;2023-09-30T08:34:34;101917.53;;;20.58;55.40
80781;BME280;70341;56.408;10.874;2023-09-30T08:37:05;101923.39;;;20.82;53.71
80781;BME280;70341;56.408;10.874;2023-09-30T08:39:39;101922.14;;;20.79;53.58
80781;BME280;70341;56.408;10.874;2023-09-30T08:42:10;101916.45;;;21.02;52.52
80781;BME280;70341;56.408;10.874;2023-09-30T08:44:39;101914.55;;;21.34;52.51
80781;BME280;70341;56.408;10.874;2023-09-30T08:47:10;101915.28;;;21.75;51.29
80781;BME280;70341;56.408;10.874;2023-09-30T08:49:43;101916.89;;;22.12;50.38
80781;BME280;70341;56.408;10.874;2023-09-30T08:52:15;101916.74;;;22.45;49.23
80781;BME280;70341;56.408;10.874;2023-09-30T08:54:43;101913.95;;;22.74;47.03
80781;BME280;70341;56.408;10.874;2023-09-30T08:57:19;101917.46;;;22.90;47.58
80781;BME280;70341;56.408;10.874;2023-09-30T08:59:53;101915.95;;;23.18;45.41
80781;BME280;70341;56.408;10.874;2023-09-30T09:02:22;101919.23;;;23.33;44.77
80781;BME280;70341;56.408;10.874;2023-09-30T09:04:52;101921.70;;;23.67;45.46
80781;BME280;70341;56.408;10.874;2023-09-30T09:07:20;101923.58;;;24.04;44.59
80781;BME280;70341;56.408;10.874;2023-09-30T09:10:12;101929.21;;;24.39;42.71
80781;BME280;70341;56.408;10.874;2023-09-30T09:12:43;101920.85;;;24.46;41.97
80781;BME280;70341;56.408;10.874;2023-09-30T09:15:28;101917.94;;;24.84;41.62
80781;BME280;70341;56.408;10.874;2023-09-30T09:17:57;101923.89;;;25.55;41.52
80781;BME280;70341;56.408;10.874;2023-09-30T09:20:28;101931.14;;;26.17;39.30
80781;BME280;70341;56.408;10.874;2023-09-30T09:22:56;101931.29;;;26.61;37.99
80781;BME280;70341;56.408;10.874;2023-09-30T09:25:27;101934.82;;;27.01;38.01
80781;BME280;70341;56.408;10.874;2023-09-30T09:27:56;101933.92;;;26.90;37.10
80781;BME280;70341;56.408;10.874;2023-09-30T09:30:27;101940.54;;;27.32;36.55
80781;BME280;70341;56.408;10.874;2023-09-30T09:33:03;101939.26;;;27.77;36.29
80781;BME280;70341;56.408;10.874;2023-09-30T09:35:35;101932.65;;;28.09;34.90
80781;BME280;70341;56.408;10.874;2023-09-30T09:38:07;101932.27;;;28.30;34.57
80781;BME280;70341;56.408;10.874;2023-09-30T09:40:39;101931.39;;;28.34;33.42
80781;BME280;70341;56.408;10.874;2023-09-30T09:43:09;101929.70;;;28.19;32.86
80781;BME280;70341;56.408;10.874;2023-09-30T09:45:39;101930.04;;;27.88;33.88
80781;BME280;70341;56.408;10.874;2023-09-30T09:48:09;101936.58;;;28.23;33.68
80781;BME280;70341;56.408;10.874;2023-09-30T09:50:39;101937.89;;;27.35;33.30
80781;BME280;70341;56.408;10.874;2023-09-30T09:53:10;101935.45;;;26.67;35.27
80781;BME280;70341;56.408;10.874;2023-09-30T09:55:42;101940.61;;;25.61;36.89
80781;BME280;70341;56.408;10.874;2023-09-30T09:58:13;101946.73;;;24.46;39.03
80781;BME280;70341;56.408;10.874;2023-09-30T10:00:44;101957.45;;;23.52;40.27
80781;BME280;70341;56.408;10.874;2023-09-30T10:03:13;101961.87;;;22.62;41.23
80781;BME280;70341;56.408;10.874;2023-09-30T10:05:47;101970.08;;;21.67;44.19
80781;BME280;70341;56.408;10.874;2023-09-30T10:08:20;101972.61;;;20.75;46.59
80781;BME280;70341;56.408;10.874;2023-09-30T10:10:51;101973.59;;;20.36;47.50
80781;BME280;70341;56.408;10.874;2023-09-30T10:13:57;101969.27;;;20.39;47.86
80781;BME280;70341;56.408;10.874;2023-09-30T10:19:16;101963.30;;;22.23;45.51
80781;BME280;70341;56.408;10.874;2023-09-30T10:25:01;101956.07;;;25.29;40.08
80781;BME280;70341;56.408;10.874;2023-09-30T10:27:32;101963.34;;;24.91;39.09
80781;BME280;70341;56.408;10.874;2023-09-30T10:40:56;101968.09;;;27.40;35.25
80781;BME280;70341;56.408;10.874;2023-09-30T10:43:33;101972.77;;;28.61;33.95
80781;BME280;70341;56.408;10.874;2023-09-30T10:46:29;101961.02;;;29.73;31.96
80781;BME280;70341;56.408;10.874;2023-09-30T10:51:56;101965.52;;;31.55;29.01
80781;BME280;70341;56.408;10.874;2023-09-30T10:54:29;101963.95;;;31.62;29.02
80781;BME280;70341;56.408;10.874;2023-09-30T10:57:00;101973.06;;;30.24;29.48
80781;BME280;70341;56.408;10.874;2023-09-30T10:59:30;101972.80;;;29.46;30.23
80781;BME280;70341;56.408;10.874;2023-09-30T11:02:02;101979.55;;;28.70;31.34
80781;BME280;70341;56.408;10.874;2023-09-30T11:04:45;101987.59;;;28.74;31.53
80781;BME280;70341;56.408;10.874;2023-09-30T11:07:26;101988.34;;;28.76;31.90
80781;BME280;70341;56.408;10.874;2023-09-30T11:10:01;101982.98;;;28.19;32.13
80781;BME280;70341;56.408;10.874;2023-09-30T11:12:33;101987.94;;;27.94;32.35
80781;BME280;70341;56.408;10.874;2023-09-30T11:15:05;101980.83;;;27.35;33.40
80781;BME280;70341;56.408;10.874;2023-09-30T11:17:34;101981.61;;;25.84;34.98
80781;BME280;70341;56.408;10.874;2023-09-30T11:20:07;101976.32;;;25.30;36.75
80781;BME280;70341;56.408;10.874;2023-09-30T11:22:37;101972.54;;;26.06;36.25
80781;BME280;70341;56.408;10.874;2023-09-30T11:25:15;101972.33;;;25.81;36.50
80781;BME280;70341;56.408;10.874;2023-09-30T11:27:45;101973.77;;;26.36;35.91
80781;BME280;70341;56.408;10.874;2023-09-30T11:30:17;101976.06;;;25.34;36.92
80781;BME280;70341;56.408;10.874;2023-09-30T11:32:47;101980.52;;;24.21;38.61
80781;BME280;70341;56.408;10.874;2023-09-30T11:35:23;101983.64;;;23.34;40.54
80781;BME280;70341;56.408;10.874;2023-09-30T11:37:56;101984.98;;;22.66;41.62
80781;BME280;70341;56.408;10.874;2023-09-30T11:40:25;101981.20;;;21.92;42.52
80781;BME280;70341;56.408;10.874;2023-09-30T11:43:10;101984.79;;;21.85;43.08
80781;BME280;70341;56.408;10.874;2023-09-30T11:45:40;101984.70;;;21.81;42.78
80781;BME280;70341;56.408;10.874;2023-09-30T11:48:20;101985.79;;;23.02;41.01
80781;BME280;70341;56.408;10.874;2023-09-30T11:50:52;101978.88;;;25.19;38.49
80781;BME280;70341;56.408;10.874;2023-09-30T11:53:26;101975.54;;;27.12;33.78
80781;BME280;70341;56.408;10.874;2023-09-30T11:55:59;101976.64;;;28.70;32.57
80781;BME280;70341;56.408;10.874;2023-09-30T11:58:29;101968.86;;;30.03;30.39
80781;BME280;70341;56.408;10.874;2023-09-30T12:00:59;101972.77;;;31.06;28.36
80781;BME280;70341;56.408;10.874;2023-09-30T12:03:30;101974.89;;;31.80;26.98
80781;BME280;70341;56.408;10.874;2023-09-30T12:05:59;101972.73;;;32.30;25.13
80781;BME280;70341;56.408;10.874;2023-09-30T12:08:30;101974.41;;;32.26;25.25
80781;BME280;70341;56.408;10.874;2023-09-30T12:10:59;101974.30;;;32.26;24.59
80781;BME280;70341;56.408;10.874;2023-09-30T12:13:30;101976.23;;;32.12;24.07
80781;BME280;70341;56.408;10.874;2023-09-30T12:15:58;101977.30;;;32.03;24.12
80781;BME280;70341;56.408;10.874;2023-09-30T12:18:29;101978.66;;;31.49;24.87
80781;BME280;70341;56.408;10.874;2023-09-30T12:20:59;101974.48;;;31.13;25.51
80781;BME280;70341;56.408;10.874;2023-09-30T12:23:30;101972.80;;;29.64;27.11
80781;BME280;70341;56.408;10.874;2023-09-30T12:25:59;101984.45;;;28.00;28.78
80781;BME280;70341;56.408;10.874;2023-09-30T12:28:43;101983.35;;;26.15;31.64
80781;BME280;70341;56.408;10.874;2023-09-30T12:31:13;101988.40;;;24.87;33.99
80781;BME280;70341;56.408;10.874;2023-09-30T12:33:43;101990.53;;;23.95;35.57
80781;BME280;70341;56.408;10.874;2023-09-30T12:36:12;101990.65;;;23.55;36.88
80781;BME280;70341;56.408;10.874;2023-09-30T12:38:43;101986.83;;;23.11;38.23
80781;BME280;70341;56.408;10.874;2023-09-30T12:41:13;101987.77;;;23.18;38.73
80781;BME280;70341;56.408;10.874;2023-09-30T12:43:43;101994.96;;;23.39;38.85
80781;BME280;70341;56.408;10.874;2023-09-30T12:46:12;102002.70;;;24.33;38.20
80781;BME280;70341;56.408;10.874;2023-09-30T12:48:43;102002.46;;;24.86;36.45
80781;BME280;70341;56.408;10.874;2023-09-30T12:51:12;102007.73;;;25.86;35.28
80781;BME280;70341;56.408;10.874;2023-09-30T12:53:42;102006.02;;;26.47;34.26
80781;BME280;70341;56.408;10.874;2023-09-30T12:56:10;102007.84;;;26.80;33.17
80781;BME280;70341;56.408;10.874;2023-09-30T12:58:41;102012.83;;;26.57;33.18
80781;BME280;70341;56.408;10.874;2023-09-30T13:01:10;102010.14;;;25.92;34.71
80781;BME280;70341;56.408;10.874;2023-09-30T13:03:53;102014.45;;;24.91;35.79
80781;BME280;70341;56.408;10.874;2023-09-30T13:06:23;102021.46;;;24.16;37.41
80781;BME280;70341;56.408;10.874;2023-09-30T13:08:54;102025.95;;;23.93;35.81
80781;BME280;70341;56.408;10.874;2023-09-30T13:11:22;102022.35;;;24.44;35.39
80781;BME280;70341;56.408;10.874;2023-09-30T13:13:52;102024.70;;;25.42;33.41
80781;BME280;70341;56.408;10.874;2023-09-30T13:16:22;102022.88;;;26.12;32.47
80781;BME280;70341;56.408;10.874;2023-09-30T13:18:52;102016.69;;;26.48;32.08